createdAt,value
2017-09-10T00:01:02.175Z,11.05
2017-09-10T00:03:30.028Z,10.90
2017-09-10T00:05:57.931Z,10.85
2017-09-10T00:08:25.762Z,10.82
2017-09-10T00:10:53.656Z,10.85
2017-09-10T00:13:21.491Z,10.82
2017-09-10T00:15:49.289Z,10.80
2017-09-10T00:18:17.141Z,10.81
2017-09-10T00:20:45.036Z,10.83
2017-09-10T00:23:12.874Z,10.88
2017-09-10T00:25:40.778Z,10.93
2017-09-10T00:28:08.614Z,10.91
2017-09-10T00:30:36.558Z,10.88
2017-09-10T00:33:04.402Z,10.83
2017-09-10T00:35:32.301Z,10.77
2017-09-10T00:38:00.163Z,10.70
2017-09-10T00:40:28.079Z,10.60
2017-09-10T00:42:55.933Z,10.54
2017-09-10T00:45:23.834Z,10.48
2017-09-10T00:47:51.706Z,10.45
2017-09-10T00:50:19.622Z,10.40
2017-09-10T00:52:47.502Z,10.24
2017-09-10T00:55:15.400Z,10.23
2017-09-10T00:57:43.263Z,10.23
2017-09-10T01:00:11.254Z,10.24
2017-09-10T01:02:39.852Z,10.28
2017-09-10T01:05:07.766Z,10.28
2017-09-10T01:07:35.623Z,10.25
2017-09-10T01:10:03.527Z,10.21
2017-09-10T01:12:31.448Z,10.21
2017-09-10T01:14:59.366Z,10.11
2017-09-10T01:17:27.245Z,9.98
2017-09-10T01:19:55.183Z,9.91
2017-09-10T01:22:23.040Z,9.86
2017-09-10T01:24:50.982Z,9.81
2017-09-10T01:27:18.839Z,9.76
2017-09-10T01:29:46.746Z,9.70
2017-09-10T01:32:14.654Z,9.67
2017-09-10T01:34:42.523Z,9.66
2017-09-10T01:37:10.410Z,9.68
2017-09-10T01:39:38.270Z,9.69
2017-09-10T01:42:06.185Z,9.63
2017-09-10T01:44:34.022Z,9.50
2017-09-10T01:47:01.918Z,9.40
2017-09-10T01:49:29.658Z,9.32
2017-09-10T01:51:57.550Z,9.29
2017-09-10T01:54:25.406Z,9.25
2017-09-10T01:56:53.291Z,9.23
2017-09-10T01:59:21.164Z,9.26
2017-09-10T02:01:49.065Z,9.35
2017-09-10T02:04:16.895Z,9.39
2017-09-10T02:06:44.790Z,9.34
2017-09-10T02:09:12.640Z,9.26
2017-09-10T02:11:40.538Z,9.20
2017-09-10T02:14:08.398Z,9.14
2017-09-10T02:16:36.307Z,9.08
2017-09-10T02:19:04.179Z,9.02
2017-09-10T02:21:32.076Z,8.97
2017-09-10T02:23:59.810Z,8.88
2017-09-10T02:26:27.707Z,8.95
2017-09-10T02:28:55.553Z,8.96
2017-09-10T02:31:23.484Z,9.03
2017-09-10T02:33:51.340Z,9.13
2017-09-10T02:36:19.219Z,9.16
2017-09-10T02:38:47.058Z,9.17
2017-09-10T02:41:14.958Z,9.18
2017-09-10T02:43:42.794Z,9.17
2017-09-10T02:46:10.630Z,9.07
2017-09-10T02:48:38.534Z,9.06
2017-09-10T02:51:06.391Z,9.06
2017-09-10T02:53:34.290Z,9.08
2017-09-10T02:56:02.148Z,9.13
2017-09-10T02:58:30.050Z,9.25
2017-09-10T03:00:57.901Z,9.36
2017-09-10T03:03:25.795Z,9.44
2017-09-10T03:05:53.645Z,9.52
2017-09-10T03:08:21.533Z,9.59
2017-09-10T03:10:49.373Z,9.59
2017-09-10T03:13:17.250Z,9.58
2017-09-10T03:15:45.093Z,9.68
2017-09-10T03:18:12.983Z,9.75
2017-09-10T03:20:40.829Z,9.81
2017-09-10T03:23:08.718Z,9.87
2017-09-10T03:25:36.571Z,9.91
2017-09-10T03:28:04.466Z,9.91
2017-09-10T03:30:32.359Z,9.91
2017-09-10T03:33:00.262Z,9.91
2017-09-10T03:35:28.127Z,9.90
2017-09-10T03:37:56.025Z,9.90
2017-09-10T03:40:23.896Z,9.91
2017-09-10T03:42:51.788Z,9.92
2017-09-10T03:45:19.698Z,9.91
2017-09-10T03:47:47.591Z,9.88
2017-09-10T03:50:15.506Z,9.83
2017-09-10T03:52:43.398Z,9.74
2017-09-10T03:55:11.240Z,9.69
2017-09-10T03:57:39.133Z,9.65
2017-09-10T04:00:06.973Z,9.62
2017-09-10T04:02:34.883Z,9.62
2017-09-10T04:05:02.715Z,9.59
2017-09-10T04:07:30.562Z,9.54
2017-09-10T04:09:58.483Z,9.48
2017-09-10T04:12:26.327Z,9.42
2017-09-10T04:14:54.227Z,9.39
2017-09-10T04:17:22.085Z,9.38
2017-09-10T04:19:49.900Z,9.37
2017-09-10T04:22:17.750Z,9.18
2017-09-10T04:24:45.637Z,9.07
2017-09-10T04:27:13.491Z,9.03
2017-09-10T04:29:41.385Z,8.99
2017-09-10T04:32:09.318Z,9.06
2017-09-10T04:34:37.229Z,9.12
2017-09-10T04:37:05.075Z,9.15
2017-09-10T04:39:32.977Z,9.12
2017-09-10T04:42:00.851Z,9.06
2017-09-10T04:44:28.756Z,9.05
2017-09-10T04:46:56.681Z,9.02
2017-09-10T04:49:24.583Z,8.96
2017-09-10T04:51:52.442Z,8.95
2017-09-10T04:54:20.350Z,8.93
2017-09-10T04:56:48.226Z,8.98
2017-09-10T04:59:16.138Z,8.97
2017-09-10T05:01:43.982Z,8.95
2017-09-10T05:04:11.899Z,8.96
2017-09-10T05:06:39.761Z,8.96
2017-09-10T05:09:07.649Z,9.00
2017-09-10T05:11:35.530Z,9.10
2017-09-10T05:14:03.475Z,9.23
2017-09-10T05:16:31.346Z,9.35
2017-09-10T05:18:59.255Z,9.46
2017-09-10T05:21:27.134Z,9.63
2017-09-10T05:23:54.910Z,9.78
2017-09-10T05:26:22.734Z,9.85
2017-09-10T05:28:50.613Z,10.00
2017-09-10T05:31:18.551Z,10.26
2017-09-10T05:33:46.497Z,10.44
2017-09-10T05:36:14.352Z,10.51
2017-09-10T05:38:42.292Z,10.60
2017-09-10T05:41:10.143Z,10.72
2017-09-10T05:43:38.115Z,10.87
2017-09-10T05:46:06.023Z,11.08
2017-09-10T05:48:33.978Z,11.27
2017-09-10T05:51:01.846Z,11.42
2017-09-10T05:53:29.693Z,11.50
2017-09-10T05:55:57.610Z,11.55
2017-09-10T05:58:25.466Z,11.73
2017-09-10T06:00:53.373Z,12.01
2017-09-10T06:03:21.232Z,12.16
2017-09-10T06:05:49.154Z,12.13
2017-09-10T06:08:17.075Z,12.11
2017-09-10T06:10:44.983Z,12.13
2017-09-10T06:13:12.842Z,12.23
2017-09-10T06:15:40.773Z,12.38
2017-09-10T06:18:08.690Z,12.45
2017-09-10T06:20:36.606Z,12.49
2017-09-10T06:23:04.476Z,12.63
2017-09-10T06:25:32.393Z,12.71
2017-09-10T06:28:00.281Z,12.77
2017-09-10T06:30:28.233Z,12.79
2017-09-10T06:32:56.110Z,12.85
2017-09-10T06:35:24.027Z,12.93
2017-09-10T06:37:51.899Z,13.01
2017-09-10T06:40:19.792Z,13.03
2017-09-10T06:42:47.645Z,13.03
2017-09-10T06:45:15.601Z,12.96
2017-09-10T06:47:43.483Z,12.96
2017-09-10T06:50:11.394Z,13.05
2017-09-10T06:52:39.274Z,13.26
2017-09-10T06:55:07.180Z,13.43
2017-09-10T06:57:35.064Z,13.52
2017-09-10T07:00:03.012Z,13.53
2017-09-10T07:02:30.904Z,13.56
2017-09-10T07:04:58.816Z,13.53
2017-09-10T07:07:26.733Z,13.53
2017-09-10T07:09:54.663Z,13.50
2017-09-10T07:12:22.550Z,13.60
2017-09-10T07:14:50.489Z,13.68
2017-09-10T07:17:18.360Z,13.77
2017-09-10T07:19:46.335Z,13.95
2017-09-10T07:22:14.302Z,14.22
2017-09-10T07:24:42.257Z,14.37
2017-09-10T07:27:10.124Z,14.48
2017-09-10T07:29:38.022Z,14.61
2017-09-10T07:32:05.940Z,14.61
2017-09-10T07:34:33.844Z,14.72
2017-09-10T07:37:01.705Z,14.69
2017-09-10T07:39:29.566Z,14.64
2017-09-10T07:41:57.523Z,14.83
2017-09-10T07:44:25.493Z,15.07
2017-09-10T07:46:53.542Z,15.30
2017-09-10T07:49:21.455Z,15.32
2017-09-10T07:51:49.375Z,15.42
2017-09-10T07:54:17.254Z,15.57
2017-09-10T07:56:45.151Z,15.76
2017-09-10T07:59:13.026Z,15.96
2017-09-10T08:01:40.946Z,15.99
2017-09-10T08:04:08.793Z,15.88
2017-09-10T08:06:36.722Z,15.81
2017-09-10T08:09:04.692Z,15.76
2017-09-10T08:11:32.599Z,15.83
2017-09-10T08:14:00.454Z,16.08
2017-09-10T08:16:28.426Z,16.24
2017-09-10T08:18:56.368Z,16.34
2017-09-10T08:21:24.285Z,16.39
2017-09-10T08:23:52.242Z,16.42
2017-09-10T08:26:20.150Z,16.31
2017-09-10T08:28:48.041Z,16.31
2017-09-10T08:31:16.008Z,16.24
2017-09-10T08:33:43.900Z,16.29
2017-09-10T08:36:11.814Z,16.43
2017-09-10T08:38:39.754Z,16.49
2017-09-10T08:41:07.702Z,16.47
2017-09-10T08:43:35.556Z,16.45
2017-09-10T08:46:03.538Z,16.50
2017-09-10T08:48:31.417Z,16.56
2017-09-10T08:50:59.341Z,16.57
2017-09-10T08:53:27.250Z,16.70
2017-09-10T08:55:55.995Z,16.82
2017-09-10T08:58:23.829Z,16.92
2017-09-10T09:00:51.732Z,17.04
2017-09-10T09:03:19.582Z,17.16
2017-09-10T09:05:47.519Z,17.25
2017-09-10T09:08:15.407Z,17.36
2017-09-10T09:10:43.305Z,17.47
2017-09-10T09:13:11.225Z,17.68
2017-09-10T09:15:39.226Z,17.79
2017-09-10T09:18:07.089Z,17.90
2017-09-10T09:20:35.034Z,18.02
2017-09-10T09:23:02.915Z,17.97
2017-09-10T09:25:30.799Z,17.77
2017-09-10T09:27:58.744Z,17.56
2017-09-10T09:30:26.624Z,17.51
2017-09-10T09:32:54.594Z,17.65
2017-09-10T09:35:22.474Z,17.65
2017-09-10T09:37:50.402Z,17.87
2017-09-10T09:40:18.257Z,17.98
2017-09-10T09:42:46.187Z,18.15
2017-09-10T09:45:14.052Z,18.31
2017-09-10T09:47:42.011Z,18.45
2017-09-10T09:50:09.977Z,18.48
2017-09-10T09:52:37.951Z,18.57
2017-09-10T09:55:05.818Z,18.74
2017-09-10T09:57:33.753Z,18.75
2017-09-10T10:00:01.618Z,18.82
2017-09-10T10:02:29.568Z,18.70
2017-09-10T10:04:57.415Z,18.33
2017-09-10T10:07:25.335Z,18.21
2017-09-10T10:09:53.199Z,18.09
2017-09-10T10:12:21.151Z,18.20
2017-09-10T10:14:49.072Z,18.64
2017-09-10T10:17:17.002Z,19.05
2017-09-10T10:19:44.874Z,19.27
2017-09-10T10:22:12.795Z,19.30
2017-09-10T10:24:40.680Z,19.19
2017-09-10T10:27:08.591Z,19.30
2017-09-10T10:29:36.465Z,19.41
2017-09-10T10:32:04.407Z,19.53
2017-09-10T10:34:32.270Z,19.71
2017-09-10T10:37:00.170Z,19.95
2017-09-10T10:39:28.059Z,20.00
2017-09-10T10:41:55.979Z,20.08
2017-09-10T10:44:23.902Z,20.10
2017-09-10T10:46:51.838Z,19.68
2017-09-10T10:49:19.619Z,19.27
2017-09-10T10:51:47.528Z,19.15
2017-09-10T10:54:15.411Z,19.38
2017-09-10T10:56:43.326Z,19.82
2017-09-10T10:59:11.183Z,19.73
2017-09-10T11:01:39.090Z,19.58
2017-09-10T11:04:06.972Z,19.61
2017-09-10T11:06:34.953Z,19.83
2017-09-10T11:09:02.841Z,19.88
2017-09-10T11:11:30.686Z,19.99
2017-09-10T11:13:58.607Z,20.12
2017-09-10T11:16:26.491Z,20.08
2017-09-10T11:18:54.439Z,19.84
2017-09-10T11:21:22.335Z,19.56
2017-09-10T11:23:50.283Z,19.30
2017-09-10T11:26:18.144Z,18.92
2017-09-10T11:28:46.071Z,18.91
2017-09-10T11:31:14.006Z,18.66
2017-09-10T11:33:41.917Z,18.87
2017-09-10T11:36:10.076Z,19.18
2017-09-10T11:38:37.985Z,19.18
2017-09-10T11:41:05.862Z,19.11
2017-09-10T11:43:33.820Z,19.42
2017-09-10T11:46:01.697Z,19.82
2017-09-10T11:48:29.654Z,20.04
2017-09-10T11:50:57.568Z,20.22
2017-09-10T11:53:25.525Z,20.40
2017-09-10T11:55:53.380Z,20.53
2017-09-10T11:58:21.272Z,20.51
2017-09-10T12:00:49.113Z,20.52
2017-09-10T12:03:17.088Z,20.42
2017-09-10T12:05:45.008Z,20.39
2017-09-10T12:08:12.914Z,20.42
2017-09-10T12:10:40.808Z,20.46
2017-09-10T12:13:08.735Z,20.40
2017-09-10T12:15:36.597Z,19.97
2017-09-10T12:18:04.440Z,19.93
2017-09-10T12:20:32.311Z,20.17
2017-09-10T12:23:00.232Z,20.34
2017-09-10T12:25:28.101Z,20.51
2017-09-10T12:27:55.997Z,20.40
2017-09-10T12:30:23.912Z,20.42
2017-09-10T12:32:51.891Z,20.63
2017-09-10T12:35:19.767Z,20.88
2017-09-10T12:37:47.579Z,21.07
2017-09-10T12:40:15.430Z,21.23
2017-09-10T12:42:43.331Z,21.12
2017-09-10T12:45:11.217Z,21.13
2017-09-10T12:47:39.148Z,21.17
2017-09-10T12:50:07.071Z,20.76
2017-09-10T12:52:35.013Z,20.15
2017-09-10T12:55:02.890Z,19.90
2017-09-10T12:57:30.775Z,19.72
2017-09-10T12:59:58.773Z,19.69
2017-09-10T13:02:26.651Z,19.56
2017-09-10T13:04:54.591Z,19.45
2017-09-10T13:07:22.443Z,19.62
2017-09-10T13:09:50.373Z,19.73
2017-09-10T13:12:18.222Z,19.85
2017-09-10T13:14:46.193Z,20.09
2017-09-10T13:17:14.048Z,20.21
2017-09-10T13:19:41.929Z,20.06
2017-09-10T13:22:09.771Z,19.83
2017-09-10T13:24:37.700Z,19.69
2017-09-10T13:27:05.565Z,19.69
2017-09-10T13:29:33.525Z,19.68
2017-09-10T13:32:01.426Z,19.71
2017-09-10T13:34:29.366Z,19.65
2017-09-10T13:36:57.212Z,19.82
2017-09-10T13:39:25.129Z,20.15
2017-09-10T13:41:53.077Z,20.54
2017-09-10T13:44:21.082Z,20.83
2017-09-10T13:46:48.956Z,21.02
2017-09-10T13:49:16.884Z,21.08
2017-09-10T13:51:44.798Z,20.75
2017-09-10T13:54:12.797Z,20.31
2017-09-10T13:56:40.745Z,19.97
2017-09-10T13:59:08.655Z,19.69
2017-09-10T14:01:36.515Z,19.73
2017-09-10T14:04:04.401Z,20.07
2017-09-10T14:06:32.340Z,20.19
2017-09-10T14:09:00.298Z,20.25
2017-09-10T14:11:28.242Z,20.13
2017-09-10T14:13:56.104Z,20.06
2017-09-10T14:16:24.034Z,19.83
2017-09-10T14:18:51.825Z,19.86
2017-09-10T14:21:19.822Z,19.78
2017-09-10T14:23:47.682Z,19.74
2017-09-10T14:26:15.591Z,19.62
2017-09-10T14:28:43.479Z,19.49
2017-09-10T14:31:11.430Z,19.44
2017-09-10T14:33:39.358Z,19.75
2017-09-10T14:36:07.287Z,20.03
2017-09-10T14:38:35.175Z,19.98
2017-09-10T14:41:03.114Z,19.72
2017-09-10T14:43:31.035Z,19.65
2017-09-10T14:45:58.950Z,19.86
2017-09-10T14:48:26.855Z,20.00
2017-09-10T14:50:54.788Z,20.11
2017-09-10T14:53:22.666Z,20.04
2017-09-10T14:55:50.610Z,19.95
2017-09-10T14:58:18.428Z,19.66
2017-09-10T15:00:46.388Z,19.34
2017-09-10T15:03:14.296Z,19.10
2017-09-10T15:05:42.227Z,19.12
2017-09-10T15:08:10.066Z,19.36
2017-09-10T15:10:37.986Z,19.61
2017-09-10T15:13:05.867Z,19.65
2017-09-10T15:15:33.822Z,19.59
2017-09-10T15:18:01.684Z,19.53
2017-09-10T15:20:29.603Z,19.43
2017-09-10T15:22:57.470Z,19.31
2017-09-10T15:25:25.445Z,19.33
2017-09-10T15:27:53.287Z,19.44
2017-09-10T15:30:21.253Z,19.52
2017-09-10T15:32:49.214Z,19.49
2017-09-10T15:35:17.156Z,19.30
2017-09-10T15:37:45.020Z,19.09
2017-09-10T15:40:12.924Z,18.94
2017-09-10T15:42:40.794Z,18.72
2017-09-10T15:45:08.750Z,18.66
2017-09-10T15:47:36.679Z,18.74
2017-09-10T15:50:04.562Z,19.07
2017-09-10T15:52:32.463Z,19.32
2017-09-10T15:55:00.416Z,19.35
2017-09-10T15:57:28.394Z,19.20
2017-09-10T15:59:56.314Z,19.01
2017-09-10T16:02:24.263Z,18.83
2017-09-10T16:04:52.101Z,18.85
2017-09-10T16:07:20.021Z,18.95
2017-09-10T16:09:47.886Z,18.99
2017-09-10T16:12:16.007Z,18.97
2017-09-10T16:14:43.866Z,18.93
2017-09-10T16:17:11.796Z,18.74
2017-09-10T16:19:39.632Z,18.53
2017-09-10T16:22:07.549Z,18.37
2017-09-10T16:24:35.506Z,18.32
2017-09-10T16:27:03.469Z,18.35
2017-09-10T16:29:31.352Z,18.26
2017-09-10T16:31:59.283Z,18.17
2017-09-10T16:34:27.198Z,17.96
2017-09-10T16:36:55.145Z,17.76
2017-09-10T16:39:23.018Z,17.58
2017-09-10T16:41:50.974Z,17.39
2017-09-10T16:44:18.915Z,17.20
2017-09-10T16:46:46.827Z,17.03
2017-09-10T16:49:14.736Z,17.00
2017-09-10T16:51:42.668Z,17.07
2017-09-10T16:54:10.506Z,17.08
2017-09-10T16:56:38.482Z,16.99
2017-09-10T16:59:06.410Z,16.87
2017-09-10T17:01:34.368Z,16.74
2017-09-10T17:04:03.201Z,16.60
2017-09-10T17:06:31.149Z,16.48
2017-09-10T17:08:59.045Z,16.40
2017-09-10T17:11:26.951Z,16.29
2017-09-10T17:13:54.818Z,16.14
2017-09-10T17:16:22.720Z,15.97
2017-09-10T17:18:50.588Z,15.81
2017-09-10T17:21:18.503Z,15.64
2017-09-10T17:23:46.377Z,15.50
2017-09-10T17:26:14.204Z,15.38
2017-09-10T17:28:42.049Z,15.27
2017-09-10T17:31:09.987Z,15.20
2017-09-10T17:33:37.853Z,15.10
2017-09-10T17:36:05.762Z,15.02
2017-09-10T17:38:33.619Z,14.95
2017-09-10T17:41:01.455Z,14.88
2017-09-10T17:43:29.367Z,14.84
2017-09-10T17:45:57.222Z,14.79
2017-09-10T17:48:25.203Z,14.74
2017-09-10T17:50:53.129Z,14.72
2017-09-10T17:53:21.087Z,14.67
2017-09-10T17:55:49.019Z,14.65
2017-09-10T17:58:16.922Z,14.59
2017-09-10T18:00:44.832Z,14.59
2017-09-10T18:03:12.754Z,14.60
2017-09-10T18:05:40.624Z,14.62
2017-09-10T18:08:08.533Z,14.62
2017-09-10T18:10:36.419Z,14.59
2017-09-10T18:13:04.379Z,14.58
2017-09-10T18:15:32.263Z,14.54
2017-09-10T18:18:00.196Z,14.48
2017-09-10T18:20:28.126Z,14.43
2017-09-10T18:22:56.033Z,14.38
2017-09-10T18:25:23.892Z,14.29
2017-09-10T18:27:51.837Z,14.20
2017-09-10T18:30:19.744Z,14.09
2017-09-10T18:32:47.699Z,14.03
2017-09-10T18:35:15.548Z,13.99
2017-09-10T18:37:43.474Z,13.99
2017-09-10T18:40:11.331Z,13.99
2017-09-10T18:42:39.281Z,13.98
2017-09-10T18:45:07.152Z,13.94
2017-09-10T18:47:35.126Z,13.91
2017-09-10T18:50:03.049Z,13.87
2017-09-10T18:52:31.000Z,13.80
2017-09-10T18:54:58.903Z,13.76
2017-09-10T18:57:26.920Z,13.72
2017-09-10T18:59:54.731Z,13.69
2017-09-10T19:02:22.674Z,13.64
2017-09-10T19:04:50.594Z,13.57
2017-09-10T19:07:18.506Z,13.52
2017-09-10T19:09:46.271Z,13.46
2017-09-10T19:12:14.080Z,13.42
2017-09-10T19:14:41.931Z,13.41
2017-09-10T19:17:09.821Z,13.46
2017-09-10T19:19:37.741Z,13.48
2017-09-10T19:22:05.607Z,13.51
2017-09-10T19:24:33.552Z,13.55
2017-09-10T19:27:01.440Z,13.58
2017-09-10T19:29:29.363Z,13.64
2017-09-10T19:31:57.286Z,13.66
2017-09-10T19:34:25.233Z,13.65
2017-09-10T19:36:53.089Z,13.64
2017-09-10T19:39:21.036Z,13.66
2017-09-10T19:41:48.882Z,13.67
2017-09-10T19:44:16.807Z,13.66
2017-09-10T19:46:44.722Z,13.66
2017-09-10T19:49:12.700Z,13.69
2017-09-10T19:51:40.577Z,13.70
2017-09-10T19:54:08.491Z,13.70
2017-09-10T19:56:36.356Z,13.68
2017-09-10T19:59:04.258Z,13.63
2017-09-10T20:01:32.129Z,13.55
2017-09-10T20:04:00.060Z,13.52
2017-09-10T20:06:27.923Z,13.48
2017-09-10T20:08:55.851Z,13.47
2017-09-10T20:11:23.739Z,13.46
2017-09-10T20:13:51.640Z,13.46
2017-09-10T20:16:19.492Z,13.47
2017-09-10T20:18:47.392Z,13.43
2017-09-10T20:21:15.319Z,13.41
2017-09-10T20:23:43.257Z,13.39
2017-09-10T20:26:11.119Z,13.34
2017-09-10T20:28:39.036Z,13.33
2017-09-10T20:31:06.956Z,13.26
2017-09-10T20:33:34.863Z,13.22
2017-09-10T20:36:02.716Z,13.17
2017-09-10T20:38:30.664Z,13.13
2017-09-10T20:40:58.546Z,13.09
2017-09-10T20:43:26.443Z,13.07
2017-09-10T20:45:54.322Z,13.04
2017-09-10T20:48:22.240Z,13.02
2017-09-10T20:50:50.169Z,13.02
2017-09-10T20:53:18.038Z,13.02
2017-09-10T20:55:45.930Z,13.00
2017-09-10T20:58:13.806Z,12.98
2017-09-10T21:00:42.174Z,12.98
2017-09-10T21:03:10.015Z,12.95
2017-09-10T21:05:37.934Z,12.91
2017-09-10T21:08:05.779Z,12.87
2017-09-10T21:10:33.675Z,12.81
2017-09-10T21:13:01.589Z,12.75
2017-09-10T21:15:29.500Z,12.72
2017-09-10T21:17:57.370Z,12.68
2017-09-10T21:20:25.300Z,12.68
2017-09-10T21:22:53.183Z,12.65
2017-09-10T21:25:21.064Z,12.62
2017-09-10T21:27:48.938Z,12.61
2017-09-10T21:30:16.850Z,12.61
2017-09-10T21:32:44.804Z,12.58
2017-09-10T21:35:12.734Z,12.56
2017-09-10T21:37:40.490Z,12.54
2017-09-10T21:40:08.382Z,12.57
2017-09-10T21:42:36.258Z,12.60
2017-09-10T21:45:04.192Z,12.58
2017-09-10T21:47:32.023Z,12.52
2017-09-10T21:49:59.975Z,12.51
2017-09-10T21:52:27.819Z,12.49
2017-09-10T21:54:55.752Z,12.49
2017-09-10T21:57:23.619Z,12.49
2017-09-10T21:59:51.515Z,12.46
2017-09-10T22:02:19.364Z,12.41
2017-09-10T22:04:47.341Z,12.38
2017-09-10T22:07:15.240Z,12.36
2017-09-10T22:09:43.122Z,12.32
2017-09-10T22:12:10.968Z,12.30
2017-09-10T22:14:38.838Z,12.27
2017-09-10T22:17:06.669Z,12.25
2017-09-10T22:19:34.568Z,12.23
2017-09-10T22:22:02.424Z,12.22
2017-09-10T22:24:30.310Z,12.21
2017-09-10T22:26:58.159Z,12.23
2017-09-10T22:29:26.043Z,12.24
2017-09-10T22:31:53.945Z,12.27
2017-09-10T22:34:21.821Z,12.31
2017-09-10T22:36:49.663Z,12.35
2017-09-10T22:39:17.490Z,12.35
2017-09-10T22:41:45.396Z,12.35
2017-09-10T22:44:13.243Z,12.37
2017-09-10T22:46:41.169Z,12.37
2017-09-10T22:49:09.062Z,12.39
2017-09-10T22:51:36.982Z,12.38
2017-09-10T22:54:04.815Z,12.39
2017-09-10T22:56:32.722Z,12.41
2017-09-10T22:59:00.554Z,12.42
2017-09-10T23:01:28.431Z,12.42
2017-09-10T23:03:56.274Z,12.42
2017-09-10T23:06:24.150Z,12.42
2017-09-10T23:08:52.015Z,12.49
2017-09-10T23:11:19.902Z,12.54
2017-09-10T23:13:47.735Z,12.56
2017-09-10T23:16:15.611Z,12.57
2017-09-10T23:18:43.440Z,12.59
2017-09-10T23:21:11.333Z,12.63
2017-09-10T23:23:39.145Z,12.68
2017-09-10T23:26:07.003Z,12.72
2017-09-10T23:28:34.834Z,12.76
2017-09-10T23:31:02.786Z,12.78
2017-09-10T23:33:30.633Z,12.79
2017-09-10T23:35:58.511Z,12.81
2017-09-10T23:38:26.331Z,12.83
2017-09-10T23:40:54.232Z,12.84
2017-09-10T23:43:22.074Z,12.85
2017-09-10T23:45:49.964Z,12.86
2017-09-10T23:48:17.817Z,12.87
2017-09-10T23:50:45.723Z,12.86
2017-09-10T23:53:13.575Z,12.82
2017-09-10T23:55:41.454Z,12.76
2017-09-10T23:58:09.296Z,12.72
